Time;durP1;ratioP1;P1;durP2;ratioP2;P2;SDS_P1;SDS_P2;PMS_P1;PMS_P2;Temp;Humidity;BMP_temperature;BMP_pressure;BME280_temperature;BME280_humidity;BME280_pressure;Samples;Min_cycle;Max_cycle;Signal;HPM_P1;HPM_P2
2022/03/09 00:00:07;;;;;;;;;66.75;51.75;;;;;8.32;46.34;101768.75;2452186;27;44598;-85
2022/03/09 00:01:18;;;;;;;;;68.75;51.50;;;;;8.29;46.96;101758.31;2451975;27;45195;-84
2022/03/09 00:02:28;;;;;;;;;66.75;50.75;;;;;8.28;47.22;101761.81;2451705;28;45223;-84
2022/03/09 00:03:38;;;;;;;;;65.75;49.75;;;;;8.26;47.14;101765.31;2452025;27;45342;-84
2022/03/09 00:04:49;;;;;;;;;72.75;52.50;;;;;8.22;47.38;101759.22;2451859;27;45545;-84
2022/03/09 00:05:59;;;;;;;;;68.50;52.25;;;;;8.21;46.89;101765.34;2451668;28;45418;-84
2022/03/09 00:07:10;;;;;;;;;67.50;50.50;;;;;8.20;47.50;101766.22;2451967;27;45151;-84
2022/03/09 00:08:20;;;;;;;;;69.25;53.50;;;;;8.16;47.32;101765.38;2450108;28;47201;-84
2022/03/09 00:09:30;;;;;;;;;71.25;55.25;;;;;8.15;47.52;101763.63;2450864;28;45449;-84
2022/03/09 00:10:41;;;;;;;;;71.75;54.00;;;;;8.13;47.05;101768.00;2452138;27;46291;-84
2022/03/09 00:11:51;;;;;;;;;66.50;52.50;;;;;8.12;47.33;101757.53;2451294;28;44890;-84
2022/03/09 00:13:02;;;;;;;;;72.75;54.00;;;;;8.08;47.21;101765.41;2450584;28;46208;-84
2022/03/09 00:14:12;;;;;;;;;71.75;52.00;;;;;8.07;47.61;101765.44;2451125;28;44739;-85
2022/03/09 00:15:22;;;;;;;;;70.00;51.50;;;;;8.04;47.82;101771.56;2451210;28;46583;-84
2022/03/09 00:16:33;;;;;;;;;70.75;54.25;;;;;8.01;47.98;101766.31;2451892;27;44665;-84
2022/03/09 00:17:43;;;;;;;;;72.00;53.00;;;;;7.99;47.31;101760.22;2451324;28;45349;-84
2022/03/09 00:18:54;;;;;;;;;70.75;55.00;;;;;7.98;48.10;101763.72;2451950;27;45227;-84
2022/03/09 00:20:06;;;;;;;;;70.75;54.75;;;;;7.95;47.79;101759.38;2451668;27;46180;-84
2022/03/09 00:21:16;;;;;;;;;72.00;54.50;;;;;7.94;48.20;101764.63;2451443;28;45212;-84
2022/03/09 00:22:27;;;;;;;;;75.25;56.00;;;;;7.92;47.79;101761.16;2451432;28;46286;-84
2022/03/09 00:23:37;;;;;;;;;71.75;51.75;;;;;7.91;47.98;101767.25;2451800;28;44617;-84
2022/03/09 00:24:47;;;;;;;;;69.50;52.00;;;;;7.86;48.35;101760.31;2451779;28;45173;-84
2022/03/09 00:25:58;;;;;;;;;76.50;54.25;;;;;7.87;48.20;101767.28;2451457;28;45268;-84
2022/03/09 00:27:09;;;;;;;;;71.50;53.50;;;;;7.85;48.32;101766.41;2451713;27;45260;-84
2022/03/09 00:28:19;;;;;;;;;73.00;53.50;;;;;7.84;48.21;101766.41;2451823;27;44694;-82
2022/03/09 00:29:29;;;;;;;;;72.75;54.25;;;;;7.79;48.06;101763.81;2451712;27;45326;-82
2022/03/09 00:30:40;;;;;;;;;76.00;55.25;;;;;7.79;47.99;101766.44;2451371;28;45369;-82
2022/03/09 00:31:50;;;;;;;;;73.00;52.75;;;;;7.77;48.98;101773.44;2451378;28;46143;-81
2022/03/09 00:33:00;;;;;;;;;70.75;54.50;;;;;7.75;48.88;101769.97;2451866;27;44766;-83
2022/03/09 00:34:11;;;;;;;;;75.50;55.50;;;;;7.73;49.18;101775.19;2451492;27;46483;-83
2022/03/09 00:35:21;;;;;;;;;67.75;52.25;;;;;7.71;48.80;101778.69;2451693;27;45303;-83
2022/03/09 00:36:32;;;;;;;;;70.00;52.25;;;;;7.71;48.46;101779.56;2451533;28;45481;-83
2022/03/09 00:37:42;;;;;;;;;72.00;53.25;;;;;7.68;48.42;101781.34;2451785;28;44733;-83
2022/03/09 00:38:53;;;;;;;;;67.25;53.50;;;;;7.68;48.43;101781.34;2451361;28;45728;-83
2022/03/09 00:40:05;;;;;;;;;68.25;51.25;;;;;7.66;48.76;101781.31;2451763;27;45310;-83
2022/03/09 00:41:15;;;;;;;;;72.00;52.25;;;;;7.63;48.75;101781.34;2451432;27;46212;-83
2022/03/09 00:42:26;;;;;;;;;67.50;50.50;;;;;7.62;49.23;101784.84;2451671;27;45176;-83
2022/03/09 00:43:36;;;;;;;;;72.00;55.50;;;;;7.60;49.44;101781.34;2451495;28;46662;-83
2022/03/09 00:44:47;;;;;;;;;67.75;51.50;;;;;7.59;48.95;101785.72;2451886;28;44606;-86
2022/03/09 00:45:57;;;;;;;;;75.00;54.75;;;;;7.59;49.16;101776.97;2451470;27;45343;-83
2022/03/09 00:47:07;;;;;;;;;70.50;52.50;;;;;7.58;48.98;101783.97;2451513;27;45168;-83
2022/03/09 00:48:18;;;;;;;;;75.75;54.50;;;;;7.55;48.88;101781.38;2451337;27;46277;-83
2022/03/09 00:49:28;;;;;;;;;74.00;56.00;;;;;7.54;49.59;101782.22;2451704;28;45270;-82
2022/03/09 00:50:38;;;;;;;;;69.00;52.50;;;;;7.53;49.63;101783.97;2451196;28;46529;-82
2022/03/09 00:51:49;;;;;;;;;70.25;52.25;;;;;7.52;49.48;101784.00;2451732;28;45249;-82
2022/03/09 00:52:59;;;;;;;;;69.50;53.25;;;;;7.48;49.71;101783.13;2451484;28;45316;-82
2022/03/09 00:54:10;;;;;;;;;66.75;50.50;;;;;7.49;49.77;101794.47;2451558;28;45275;-82
2022/03/09 00:55:20;;;;;;;;;68.50;51.75;;;;;7.49;49.40;101795.34;2451376;28;45277;-82
2022/03/09 00:56:30;;;;;;;;;72.75;55.00;;;;;7.47;50.03;101794.47;2451330;28;45334;-83
2022/03/09 00:57:41;;;;;;;;;67.75;51.00;;;;;7.45;50.01;101801.47;2451592;28;45443;-80
2022/03/09 00:58:51;;;;;;;;;72.25;53.00;;;;;7.44;49.93;101799.72;2451537;27;45305;-80
2022/03/09 01:00:03;;;;;;;;;72.25;52.75;;;;;7.43;50.19;101798.81;2450144;28;47147;-80
2022/03/09 01:01:13;;;;;;;;;73.00;52.50;;;;;7.43;49.64;101806.69;2451057;28;45382;-80
2022/03/09 01:02:24;;;;;;;;;73.00;51.50;;;;;7.41;49.49;101797.09;2450708;28;45098;-81
2022/03/09 01:03:34;;;;;;;;;66.00;50.75;;;;;7.42;50.34;101798.84;2451546;28;45141;-80
2022/03/09 01:04:45;;;;;;;;;70.25;51.75;;;;;7.41;50.10;101803.19;2451388;28;46496;-81
2022/03/09 01:05:55;;;;;;;;;66.50;51.75;;;;;7.39;50.00;101798.84;2451366;27;45239;-82
2022/03/09 01:07:05;;;;;;;;;68.00;52.75;;;;;7.38;49.59;101791.88;2451295;28;45385;-82
2022/03/09 01:08:16;;;;;;;;;72.75;53.00;;;;;7.39;49.65;101799.72;2450245;28;45307;-83
2022/03/09 01:09:26;;;;;;;;;68.50;53.25;;;;;7.37;49.67;101793.63;2450830;28;46215;-83
2022/03/09 01:10:36;;;;;;;;;68.50;53.25;;;;;7.35;50.06;101792.75;2454332;27;45374;-79
2022/03/09 01:11:47;;;;;;;;;64.25;50.50;;;;;7.35;49.83;101798.00;2456970;27;45250;-79
2022/03/09 01:12:57;;;;;;;;;74.50;54.75;;;;;7.35;49.84;101792.75;2451097;27;45460;-79
2022/03/09 01:14:08;;;;;;;;;67.50;50.25;;;;;7.34;49.80;101795.38;2451251;27;45259;-80
2022/03/09 01:15:18;;;;;;;;;72.25;54.00;;;;;7.32;50.01;101796.25;2451382;28;45141;-79
2022/03/09 01:16:28;;;;;;;;;73.50;53.75;;;;;7.35;49.86;101798.00;2451220;28;45243;-79
2022/03/09 01:17:39;;;;;;;;;70.50;52.75;;;;;7.34;49.82;101804.09;2451330;28;45171;-79
2022/03/09 01:18:49;;;;;;;;;71.50;53.25;;;;;7.31;50.25;101799.72;2451127;27;45343;-79
2022/03/09 01:20:00;;;;;;;;;69.00;53.50;;;;;7.31;50.49;101796.25;2451248;28;45235;-79
2022/03/09 01:21:11;;;;;;;;;68.75;50.50;;;;;7.32;50.65;101801.47;2451331;27;46583;-79
2022/03/09 01:22:22;;;;;;;;;66.50;51.00;;;;;7.30;50.56;101800.63;2451350;27;45444;-79
2022/03/09 01:23:32;;;;;;;;;69.50;54.25;;;;;7.30;50.30;101799.75;2450404;28;48250;-79
2022/03/09 01:24:42;;;;;;;;;71.50;53.75;;;;;7.30;50.84;101811.09;2443586;28;45420;-79
2022/03/09 01:25:53;;;;;;;;;68.50;52.25;;;;;7.30;50.48;101811.09;2450387;28;46443;-84
2022/03/09 01:27:03;;;;;;;;;70.00;53.25;;;;;7.27;50.54;101813.69;2446319;28;45258;-84
2022/03/09 01:28:14;;;;;;;;;66.25;48.00;;;;;7.27;50.48;101808.47;2461842;27;47288;-85
2022/03/09 01:29:24;;;;;;;;;74.50;55.00;;;;;7.27;50.90;101816.31;2464806;27;45228;-85
2022/03/09 01:30:34;;;;;;;;;65.00;51.00;;;;;7.28;50.72;101809.34;2450424;28;48251;-85
2022/03/09 01:31:45;;;;;;;;;71.50;53.00;;;;;7.26;50.81;101813.72;2450802;28;45221;-85
2022/03/09 01:32:55;;;;;;;;;71.50;52.75;;;;;7.25;50.85;101804.09;2451217;27;46197;-85
2022/03/09 01:34:06;;;;;;;;;69.75;52.00;;;;;7.25;50.74;101812.84;2451406;27;45311;-84
2022/03/09 01:35:16;;;;;;;;;70.75;54.25;;;;;7.24;50.89;101810.19;2451037;28;45599;-84
2022/03/09 01:36:27;;;;;;;;;73.00;52.50;;;;;7.25;50.73;101809.34;2450591;28;45279;-84
2022/03/09 01:37:37;;;;;;;;;74.00;54.75;;;;;7.25;50.81;101809.34;2443431;28;47021;-84
2022/03/09 01:38:48;;;;;;;;;63.00;52.00;;;;;7.24;50.69;101804.97;2450219;28;45681;-84
2022/03/09 01:39:58;;;;;;;;;74.00;55.50;;;;;7.22;50.76;101804.09;2443384;28;47270;-85
2022/03/09 01:41:08;;;;;;;;;72.75;52.50;;;;;7.22;50.57;101810.22;2443337;28;45305;-85
2022/03/09 01:42:19;;;;;;;;;68.00;53.25;;;;;7.20;50.44;101805.00;2443289;28;47202;-85
2022/03/09 01:43:30;;;;;;;;;74.50;55.75;;;;;7.22;50.86;101798.88;2450541;28;45346;-85
2022/03/09 01:44:40;;;;;;;;;74.00;55.50;;;;;7.21;50.56;101803.22;2451013;28;46599;-85
2022/03/09 01:45:50;;;;;;;;;74.25;55.00;;;;;7.19;50.77;101797.13;2451218;28;45312;-85
2022/03/09 01:47:01;;;;;;;;;72.00;55.00;;;;;7.18;50.79;101803.25;2450989;27;45426;-85
2022/03/09 01:48:11;;;;;;;;;75.00;56.25;;;;;7.17;50.96;101805.00;2451244;28;44681;-85
2022/03/09 01:49:23;;;;;;;;;70.75;54.75;;;;;7.18;50.96;101801.53;2452066;27;45425;-85
2022/03/09 01:50:34;;;;;;;;;72.25;55.50;;;;;7.16;50.71;101799.78;2461133;27;45172;-85
2022/03/09 01:51:47;;;;;;;;;75.00;55.50;;;;;7.14;50.85;101797.16;2452460;27;45248;-85
2022/03/09 01:52:59;;;;;;;;;69.50;53.00;;;;;7.14;51.33;101794.53;2451273;27;45179;-85
2022/03/09 01:54:10;;;;;;;;;76.75;55.00;;;;;7.16;51.09;101803.25;2450427;28;46593;-85
2022/03/09 01:55:21;;;;;;;;;75.50;56.50;;;;;7.14;50.75;101798.88;2451141;28;45366;-85
2022/03/09 01:56:33;;;;;;;;;79.50;57.50;;;;;7.15;51.01;101798.91;2450776;27;46187;-85
2022/03/09 01:57:43;;;;;;;;;74.25;55.75;;;;;7.13;51.07;101794.53;2450648;27;45322;-86
2022/03/09 01:58:54;;;;;;;;;73.50;54.00;;;;;7.12;50.80;101798.91;2451133;27;46736;-86
2022/03/09 02:00:05;;;;;;;;;78.25;57.00;;;;;7.12;51.30;101798.91;2451065;27;45200;-86
2022/03/09 02:01:15;;;;;;;;;70.00;54.25;;;;;7.14;51.08;101798.88;2450979;27;46694;-83
2022/03/09 02:02:26;;;;;;;;;71.75;54.00;;;;;7.11;51.12;101798.91;2451146;28;44591;-83
2022/03/09 02:03:37;;;;;;;;;71.25;55.00;;;;;7.09;51.36;101798.91;2451125;27;45282;-83
2022/03/09 02:04:48;;;;;;;;;75.75;55.75;;;;;7.08;50.92;101794.56;2450901;28;44616;-82
2022/03/09 02:05:59;;;;;;;;;74.75;56.00;;;;;7.09;51.19;101801.50;2450726;28;45407;-82
2022/03/09 02:07:10;;;;;;;;;70.75;53.25;;;;;7.06;51.32;101797.16;2451260;27;45295;-82
2022/03/09 02:09:51;;;;;;;;;72.75;56.75;;;;;7.04;51.47;101798.91;2449426;28;45307;-84
2022/03/09 02:11:02;;;;;;;;;70.00;54.25;;;;;7.03;51.88;101799.78;2457109;27;46027;-84
2022/03/09 02:12:15;;;;;;;;;69.75;53.00;;;;;7.04;51.57;101795.41;2453273;27;44826;-84
2022/03/09 02:13:26;;;;;;;;;75.00;56.25;;;;;7.01;51.65;101798.06;2450589;28;45285;-82
2022/03/09 02:14:38;;;;;;;;;72.75;56.50;;;;;7.02;51.71;101794.53;2451148;28;45160;-85
2022/03/09 02:15:49;;;;;;;;;68.75;52.25;;;;;7.00;51.73;101791.06;2450813;28;45278;-85
2022/03/09 02:17:02;;;;;;;;;72.50;54.75;;;;;7.00;52.07;101793.69;2451005;28;44822;-85
2022/03/09 02:18:12;;;;;;;;;71.50;54.00;;;;;6.98;51.80;101799.81;2450108;28;48423;-85
2022/03/09 02:19:22;;;;;;;;;70.25;54.25;;;;;6.97;51.80;101792.81;2449928;28;45403;-86
2022/03/09 02:20:40;;;;;;;;;78.00;56.50;;;;;6.96;51.56;101785.84;2450768;28;46514;-85
2022/03/09 02:21:58;;;;;;;;;73.75;54.75;;;;;6.95;51.76;101794.56;2451072;28;44720;-86
2022/03/09 02:23:09;;;;;;;;;73.50;57.25;;;;;6.94;51.88;101791.97;2450195;28;47283;-85
2022/03/09 02:24:21;;;;;;;;;77.00;55.75;;;;;6.93;52.03;101792.81;2443191;28;45296;-82
2022/03/09 02:25:31;;;;;;;;;72.25;55.00;;;;;6.92;51.59;101783.22;2450100;28;45528;-82
2022/03/09 02:26:42;;;;;;;;;73.50;54.25;;;;;6.90;51.62;101791.09;2450990;27;45317;-80
2022/03/09 02:27:52;;;;;;;;;72.75;55.00;;;;;6.91;52.12;101792.84;2450685;27;46285;-80
2022/03/09 02:29:03;;;;;;;;;78.00;58.25;;;;;6.89;52.00;101789.31;2450745;27;45404;-80
2022/03/09 02:30:17;;;;;;;;;76.25;57.25;;;;;6.88;52.29;101798.06;2450112;27;46274;-78
2022/03/09 02:31:28;;;;;;;;;74.75;55.25;;;;;6.86;52.02;101795.41;2450345;28;45218;-83
2022/03/09 02:32:44;;;;;;;;;76.75;56.25;;;;;6.86;52.18;101794.56;2450824;27;45250;-82
2022/03/09 02:33:55;;;;;;;;;77.00;56.00;;;;;6.86;52.57;101797.19;2450661;27;44772;-83
2022/03/09 02:35:05;;;;;;;;;75.25;56.00;;;;;6.84;52.21;101799.78;2450536;28;46223;-82
2022/03/09 02:36:15;;;;;;;;;74.25;56.50;;;;;6.83;52.38;101799.78;2450921;28;45303;-82
2022/03/09 02:37:26;;;;;;;;;81.50;59.00;;;;;6.84;52.35;101804.16;2450895;27;45282;-83
2022/03/09 02:38:36;;;;;;;;;78.75;57.50;;;;;6.81;52.31;101796.31;2450857;28;45228;-83
2022/03/09 02:39:47;;;;;;;;;73.50;56.25;;;;;6.82;52.55;101793.69;2450014;28;48536;-83
2022/03/09 02:40:57;;;;;;;;;76.00;57.75;;;;;6.81;52.36;101791.09;2442880;28;45169;-83
2022/03/09 02:42:08;;;;;;;;;74.50;58.00;;;;;6.80;52.62;101795.44;2442816;28;47376;-83
2022/03/09 02:43:19;;;;;;;;;80.50;62.25;;;;;6.80;52.42;101786.72;2450341;28;45241;-83
2022/03/09 02:44:30;;;;;;;;;78.25;60.75;;;;;6.78;52.65;101796.31;2449640;28;48090;-83
2022/03/09 02:45:40;;;;;;;;;76.00;57.50;;;;;6.78;52.44;101791.09;2450242;28;44785;-83
2022/03/09 02:46:51;;;;;;;;;76.25;57.50;;;;;6.78;52.64;101788.47;2450033;28;46399;-83
2022/03/09 02:48:01;;;;;;;;;74.25;55.75;;;;;6.76;52.44;101788.47;2450609;28;45460;-82
2022/03/09 02:49:12;;;;;;;;;73.25;58.00;;;;;6.74;52.26;101793.69;2450535;27;45303;-82
2022/03/09 02:50:22;;;;;;;;;76.25;58.00;;;;;6.74;52.78;101787.63;2450365;27;45204;-82
2022/03/09 02:51:33;;;;;;;;;79.00;58.00;;;;;6.71;52.59;101792.81;2450688;27;46461;-83
2022/03/09 02:52:44;;;;;;;;;72.50;54.00;;;;;6.72;52.77;101794.56;2450158;28;45231;-83
2022/03/09 02:53:55;;;;;;;;;74.50;57.50;;;;;6.70;52.98;101796.28;2442873;28;48358;-82
2022/03/09 02:55:06;;;;;;;;;77.75;58.25;;;;;6.69;53.00;101798.03;2450287;28;45169;-82
2022/03/09 02:56:17;;;;;;;;;75.75;57.75;;;;;6.69;53.17;101803.25;2450111;27;45386;-82
2022/03/09 02:57:27;;;;;;;;;80.00;59.00;;;;;6.68;52.67;101801.53;2450271;27;45419;-82
2022/03/09 02:58:38;;;;;;;;;78.25;57.25;;;;;6.67;52.74;101805.00;2450621;28;45254;-85
2022/03/09 02:59:49;;;;;;;;;78.50;57.50;;;;;6.68;52.81;101811.09;2450835;27;45207;-88
2022/03/09 03:00:59;;;;;;;;;82.00;60.75;;;;;6.66;52.88;101810.25;2450698;27;46168;-87
2022/03/09 03:02:10;;;;;;;;;76.25;58.25;;;;;6.65;52.97;101811.97;2449648;28;45496;-84
2022/03/09 03:03:20;;;;;;;;;74.25;55.50;;;;;6.62;53.25;101815.47;2450055;28;45481;-84
2022/03/09 03:04:30;;;;;;;;;80.00;61.75;;;;;6.62;52.98;101817.19;2450886;27;45317;-84
2022/03/09 03:05:41;;;;;;;;;76.00;56.75;;;;;6.61;53.57;101816.34;2450221;28;45320;-85
2022/03/09 03:06:52;;;;;;;;;77.25;58.75;;;;;6.61;52.83;101820.69;2450755;28;45225;-85
2022/03/09 03:08:02;;;;;;;;;78.00;56.75;;;;;6.59;53.47;101812.84;2449416;28;47215;-85
2022/03/09 03:09:13;;;;;;;;;74.50;56.00;;;;;6.60;53.30;101813.72;2450052;28;45232;-85
2022/03/09 03:10:23;;;;;;;;;79.25;60.00;;;;;6.57;53.23;101813.72;2451157;27;46758;-84
2022/03/09 03:11:34;;;;;;;;;78.00;58.25;;;;;6.56;52.80;101823.31;2449288;28;44831;-84
2022/03/09 03:12:44;;;;;;;;;75.75;54.25;;;;;6.54;53.28;101811.97;2450119;28;46519;-85
2022/03/09 03:13:55;;;;;;;;;73.25;54.50;;;;;6.53;53.23;101816.31;2449750;28;45395;-84
2022/03/09 03:15:06;;;;;;;;;79.50;58.00;;;;;6.55;53.51;101818.06;2450423;28;45356;-85
2022/03/09 03:16:16;;;;;;;;;76.50;58.75;;;;;6.52;53.58;101811.09;2449660;28;45192;-84
2022/03/09 03:17:27;;;;;;;;;74.00;57.25;;;;;6.52;53.61;101821.53;2442664;28;47910;-84
2022/03/09 03:18:38;;;;;;;;;78.25;56.25;;;;;6.52;53.69;101826.75;2450788;27;45248;-84
2022/03/09 03:19:48;;;;;;;;;77.75;57.75;;;;;6.50;53.32;101824.16;2450288;28;46251;-84
2022/03/09 03:20:59;;;;;;;;;72.75;55.75;;;;;6.48;53.55;101823.28;2450636;28;45250;-84
2022/03/09 03:22:09;;;;;;;;;74.25;55.75;;;;;6.45;53.59;101825.88;2450631;27;45358;-85
2022/03/09 03:23:21;;;;;;;;;76.50;58.00;;;;;6.45;53.30;101818.03;2450506;28;45274;-86
2022/03/09 03:24:32;;;;;;;;;77.25;57.25;;;;;6.45;53.32;101820.66;2450438;27;46104;-85
2022/03/09 03:25:42;;;;;;;;;82.50;60.25;;;;;6.45;53.86;101817.16;2450308;28;44648;-85
2022/03/09 03:26:53;;;;;;;;;81.00;60.50;;;;;6.43;54.04;101822.41;2450429;28;45382;-85
2022/03/09 03:28:03;;;;;;;;;82.00;63.75;;;;;6.39;53.54;101811.09;2450611;27;44700;-85
2022/03/09 03:29:14;;;;;;;;;77.50;58.00;;;;;6.42;53.65;101818.03;2450330;27;46448;-85
2022/03/09 03:30:24;;;;;;;;;78.50;59.75;;;;;6.40;53.69;101814.53;2450612;28;45251;-85
2022/03/09 03:31:34;;;;;;;;;79.50;63.75;;;;;6.38;53.45;101811.94;2450405;28;46384;-85
2022/03/09 03:32:46;;;;;;;;;72.00;54.25;;;;;6.38;53.91;101808.44;2450277;28;45177;-85
2022/03/09 03:33:57;;;;;;;;;79.25;58.25;;;;;6.38;53.60;101809.34;2449858;28;47290;-85
2022/03/09 03:35:08;;;;;;;;;76.75;58.75;;;;;6.37;53.74;101801.50;2449922;28;45201;-86
2022/03/09 03:36:18;;;;;;;;;78.50;58.50;;;;;6.37;53.67;101801.50;2450358;28;46311;-86
2022/03/09 03:37:29;;;;;;;;;82.75;62.00;;;;;6.37;53.87;101807.56;2450425;27;44716;-84
2022/03/09 03:38:39;;;;;;;;;80.00;58.00;;;;;6.35;53.93;101801.47;2450591;28;45221;-84
2022/03/09 03:39:49;;;;;;;;;74.50;57.25;;;;;6.35;53.87;101801.47;2450573;27;44809;-85
2022/03/09 03:41:00;;;;;;;;;71.75;50.25;;;;;6.36;54.13;101799.75;2449036;28;48416;-87
2022/03/09 03:42:11;;;;;;;;;79.75;58.25;;;;;6.36;53.96;101810.19;2442546;28;45359;-86
2022/03/09 03:43:21;;;;;;;;;80.25;62.75;;;;;6.35;53.60;101801.47;2450675;28;45409;-85
2022/03/09 03:44:32;;;;;;;;;79.25;60.25;;;;;6.34;53.98;101809.31;2451371;28;45293;-85
2022/03/09 03:45:42;;;;;;;;;79.25;58.50;;;;;6.32;54.07;101804.09;2451153;28;45988;-85
2022/03/09 03:46:52;;;;;;;;;81.25;62.75;;;;;6.33;54.14;101800.63;2452315;27;45459;-86
2022/03/09 03:48:03;;;;;;;;;77.50;58.75;;;;;6.34;53.83;101817.16;2451644;27;45589;-86
2022/03/09 03:49:14;;;;;;;;;78.75;60.25;;;;;6.33;53.95;101815.41;2452070;27;45438;-87
2022/03/09 03:50:24;;;;;;;;;76.25;57.00;;;;;6.32;54.54;101809.34;2451216;28;47145;-88
2022/03/09 03:51:35;;;;;;;;;72.50;56.25;;;;;6.32;53.85;101805.84;2444007;28;45248;-85
2022/03/09 03:52:45;;;;;;;;;77.25;58.75;;;;;6.32;54.35;101813.69;2451385;28;45349;-84
2022/03/09 03:53:56;;;;;;;;;77.50;56.50;;;;;6.31;54.45;101807.56;2452122;28;44585;-84
2022/03/09 03:55:06;;;;;;;;;80.25;60.50;;;;;6.30;54.06;101817.16;2452122;27;45165;-84
2022/03/09 03:56:17;;;;;;;;;79.25;59.75;;;;;6.31;54.14;101812.78;2451746;27;45574;-83
2022/03/09 03:57:27;;;;;;;;;87.00;67.75;;;;;6.31;54.35;101812.78;2451936;27;46329;-80
2022/03/09 03:58:37;;;;;;;;;81.75;59.75;;;;;6.32;54.30;101818.91;2452045;27;44694;-79
2022/03/09 03:59:48;;;;;;;;;79.25;58.75;;;;;6.31;54.18;101818.03;2452088;27;45239;-79
2022/03/09 04:00:58;;;;;;;;;81.50;63.50;;;;;6.30;54.13;101817.16;2452023;28;45181;-80
2022/03/09 04:02:09;;;;;;;;;82.00;61.75;;;;;6.30;54.33;101817.16;2451924;27;46226;-80
2022/03/09 04:03:19;;;;;;;;;76.75;58.00;;;;;6.29;54.51;101815.41;2452223;27;45236;-81
2022/03/09 04:04:29;;;;;;;;;81.00;60.50;;;;;6.30;54.33;101826.72;2447040;28;47381;-80
2022/03/09 04:05:40;;;;;;;;;79.00;64.50;;;;;6.28;54.08;101818.88;2450705;28;45375;-84
2022/03/09 04:06:50;;;;;;;;;83.00;59.00;;;;;6.29;54.63;101823.25;2450518;28;48065;-82
2022/03/09 04:08:01;;;;;;;;;80.50;62.75;;;;;6.30;54.34;101821.50;2451299;28;45421;-82
2022/03/09 04:09:11;;;;;;;;;80.25;62.00;;;;;6.28;54.31;101831.94;2451647;27;45613;-81
2022/03/09 04:10:22;;;;;;;;;82.75;65.25;;;;;6.26;54.56;101825.84;2451808;27;45235;-81
2022/03/09 04:11:32;;;;;;;;;76.25;58.00;;;;;6.27;54.25;101827.56;2451658;28;45337;-86
2022/03/09 04:12:43;;;;;;;;;78.25;57.75;;;;;6.28;54.33;101823.22;2451637;28;45331;-84
2022/03/09 04:13:53;;;;;;;;;80.50;62.25;;;;;6.27;54.29;101827.56;2451414;28;46209;-84
2022/03/09 04:15:04;;;;;;;;;78.50;60.75;;;;;6.27;54.14;101830.19;2452007;28;44660;-84
2022/03/09 04:16:14;;;;;;;;;80.00;64.00;;;;;6.25;54.44;101823.22;2451680;28;46439;-85
2022/03/09 04:17:25;;;;;;;;;86.25;66.50;;;;;6.27;54.68;101826.72;2451088;28;45244;-84
2022/03/09 04:18:35;;;;;;;;;78.25;60.00;;;;;6.26;54.75;101819.75;2451289;28;45292;-83
2022/03/09 04:19:46;;;;;;;;;79.25;58.25;;;;;6.24;54.43;101818.88;2451855;28;45189;-83
2022/03/09 04:20:56;;;;;;;;;80.00;63.75;;;;;6.23;54.62;101820.59;2451752;28;46125;-83
2022/03/09 04:22:06;;;;;;;;;81.75;62.50;;;;;6.25;54.60;101825.81;2451880;28;44637;-85
2022/03/09 04:23:17;;;;;;;;;81.00;61.25;;;;;6.23;54.65;101823.22;2451801;28;45243;-80
2022/03/09 04:24:27;;;;;;;;;77.00;58.25;;;;;6.23;54.71;101820.59;2451986;27;44601;-80
2022/03/09 04:25:37;;;;;;;;;78.50;60.50;;;;;6.23;54.84;101823.22;2451390;28;46510;-80
2022/03/09 04:26:48;;;;;;;;;77.75;58.00;;;;;6.23;54.72;101828.44;2451876;28;45380;-80
2022/03/09 04:27:59;;;;;;;;;76.50;58.00;;;;;6.24;54.66;101824.97;2451771;28;46607;-80
2022/03/09 04:29:09;;;;;;;;;73.50;56.75;;;;;6.22;54.83;101824.09;2450978;28;45351;-85
2022/03/09 04:30:20;;;;;;;;;76.75;57.75;;;;;6.22;54.67;101824.09;2451102;28;45440;-81
2022/03/09 04:31:30;;;;;;;;;77.50;61.00;;;;;6.22;54.71;101823.22;2451489;28;45148;-81
2022/03/09 04:32:41;;;;;;;;;78.00;58.00;;;;;6.21;54.69;101816.25;2451834;27;45330;-80
2022/03/09 04:33:51;;;;;;;;;82.25;63.25;;;;;6.19;54.91;101811.91;2451619;28;45232;-81
2022/03/09 04:35:05;;;;;;;;;78.50;58.75;;;;;6.19;54.91;101821.47;2451559;27;45406;-80
2022/03/09 04:36:15;;;;;;;;;76.25;56.75;;;;;6.19;54.86;101821.47;2451039;28;45239;-80
2022/03/09 04:37:30;;;;;;;;;76.00;58.50;;;;;6.19;55.11;101824.09;2451350;27;46135;-79
2022/03/09 04:38:40;;;;;;;;;77.75;63.75;;;;;6.19;54.80;101824.09;2451629;28;45323;-79
2022/03/09 04:39:51;;;;;;;;;82.00;58.50;;;;;6.17;54.92;101826.66;2451458;28;45978;-79
2022/03/09 04:41:01;;;;;;;;;80.75;59.50;;;;;6.17;55.10;101825.81;2451116;28;44679;-79
2022/03/09 04:42:12;;;;;;;;;79.50;59.00;;;;;6.16;54.91;101830.16;2451634;27;45383;-80
2022/03/09 04:43:22;;;;;;;;;76.75;58.75;;;;;6.15;55.41;101828.41;2451752;27;45472;-79
2022/03/09 04:44:32;;;;;;;;;82.25;59.75;;;;;6.15;55.03;101828.41;2450759;28;48173;-80
2022/03/09 04:45:43;;;;;;;;;83.00;61.25;;;;;6.13;55.63;101831.88;2451311;28;44770;-82
2022/03/09 04:46:53;;;;;;;;;77.25;58.25;;;;;6.13;55.02;101832.75;2451445;28;46287;-82
2022/03/09 04:48:03;;;;;;;;;83.25;60.50;;;;;6.11;55.24;101831.88;2451196;28;45321;-82
2022/03/09 04:49:14;;;;;;;;;79.50;58.75;;;;;6.10;55.02;101830.13;2451617;27;45613;-82
2022/03/09 04:50:24;;;;;;;;;80.00;58.25;;;;;6.11;55.33;101833.63;2451513;27;45321;-82
2022/03/09 04:51:36;;;;;;;;;77.00;58.25;;;;;6.11;55.37;101836.22;2451511;27;45250;-85
2022/03/09 04:52:46;;;;;;;;;75.75;57.75;;;;;6.11;55.23;101836.22;2451713;27;45250;-85
2022/03/09 04:53:57;;;;;;;;;79.50;59.75;;;;;6.10;55.43;101834.50;2451173;28;45227;-85
2022/03/09 04:55:08;;;;;;;;;80.75;60.00;;;;;6.11;55.40;101842.31;2451251;28;45491;-86
2022/03/09 04:56:18;;;;;;;;;80.25;60.75;;;;;6.08;55.25;101840.56;2451398;27;45325;-86
2022/03/09 04:57:28;;;;;;;;;80.00;58.00;;;;;6.08;55.14;101839.69;2451575;27;45227;-85
2022/03/09 04:58:39;;;;;;;;;73.75;58.50;;;;;6.07;55.33;101841.44;2450373;28;47234;-82
2022/03/09 04:59:49;;;;;;;;;74.50;56.75;;;;;6.07;55.51;101841.44;2450718;28;45364;-82
2022/03/09 05:01:00;;;;;;;;;75.00;57.00;;;;;6.07;55.42;101841.44;2443601;28;47344;-82
2022/03/09 05:02:10;;;;;;;;;79.50;58.00;;;;;6.05;55.29;101843.13;2450850;28;45448;-81
2022/03/09 05:03:21;;;;;;;;;73.25;55.25;;;;;6.07;55.41;101848.41;2451105;28;45590;-81
2022/03/09 05:04:31;;;;;;;;;77.25;58.00;;;;;6.05;55.38;101845.75;2451206;27;45287;-81
2022/03/09 05:05:41;;;;;;;;;81.25;61.00;;;;;6.03;55.71;101839.66;2450830;27;45279;-81
2022/03/09 05:06:52;;;;;;;;;78.50;59.25;;;;;6.02;55.57;101837.94;2451461;27;45376;-80
2022/03/09 05:08:02;;;;;;;;;76.00;57.50;;;;;6.05;55.54;101848.34;2451349;28;45369;-80
2022/03/09 05:09:13;;;;;;;;;71.25;56.00;;;;;6.04;55.56;101846.63;2451151;28;45443;-80
2022/03/09 05:10:23;;;;;;;;;76.25;58.50;;;;;6.01;55.69;101848.34;2452498;27;45581;-80
2022/03/09 05:11:33;;;;;;;;;77.25;56.50;;;;;6.02;55.53;101845.75;2458378;27;45441;-80
2022/03/09 05:12:44;;;;;;;;;75.50;59.25;;;;;6.00;55.66;101850.06;2450948;27;46402;-80
2022/03/09 05:13:54;;;;;;;;;72.25;56.00;;;;;6.01;55.88;101850.94;2450429;28;45412;-80
2022/03/09 05:15:05;;;;;;;;;75.50;56.50;;;;;6.01;55.52;101856.16;2450738;28;46286;-80
2022/03/09 05:16:16;;;;;;;;;79.00;59.00;;;;;5.99;55.66;101852.69;2451481;27;45144;-80
2022/03/09 05:17:26;;;;;;;;;69.50;53.50;;;;;6.00;55.75;101855.28;2451327;28;46537;-80
2022/03/09 05:18:40;;;;;;;;;72.25;55.00;;;;;5.99;55.84;101853.56;2451455;28;44585;-81
2022/03/09 05:19:50;;;;;;;;;77.00;56.00;;;;;6.00;55.99;101863.13;2451235;27;45401;-84
2022/03/09 05:21:01;;;;;;;;;73.25;56.25;;;;;5.97;55.64;101856.16;2451953;27;45447;-84
2022/03/09 05:22:11;;;;;;;;;77.00;56.00;;;;;5.99;55.92;101864.00;2451038;28;46306;-84
2022/03/09 05:23:21;;;;;;;;;72.00;54.00;;;;;5.97;55.90;101863.13;2453969;27;44726;-84
2022/03/09 05:24:32;;;;;;;;;71.75;54.75;;;;;5.99;55.81;101868.34;2460588;27;46351;-84
2022/03/09 05:25:42;;;;;;;;;74.75;56.00;;;;;5.97;55.96;101866.59;2456411;27;44606;-84